L' Anse, Michigan
Current Conditions -  °F | °C
As of 1:53 AM on Sunday 23 Nov 2014 (Local Time) from KCMX Reporting Station
Overcast Overcast  
Wind Chill: 27°   Ceiling: 800
Heat Index: 33°   Visibility: 7mi
Dew Point: 29°   Wind: 7mph
Humidity: 85%   Direction: 160°SSE
Pressure: 29.63"   Gusts: NA
Location:  46.7277°N, 88.2881°W
Report Text: KCMX 230653Z AUTO 16006KT 7SM OVC008 01/M02 A2963 RMK AO2 SLP043 T00061017
Loading
Personal Weather Stations






























Interactive Weather Map New forecast layout! Learn more

10-Day Weather Forecast

Advertisements
Track Severe Weather on mobile